createdAt,value
2023-02-19T00:00:17.656Z,72.86
2023-02-19T00:00:57.127Z,72.88
2023-02-19T00:01:39.855Z,73.36
2023-02-19T00:02:27.622Z,72.95
2023-02-19T00:03:09.905Z,73.65
2023-02-19T00:03:56.615Z,73.05
2023-02-19T00:04:43.883Z,73.19
2023-02-19T00:05:22.810Z,73.53
2023-02-19T00:06:27.797Z,73.05
2023-02-19T00:07:46.958Z,73.61
2023-02-19T00:09:43.940Z,73.36
2023-02-19T00:10:22.917Z,73.39
2023-02-19T00:11:01.662Z,73.18
2023-02-19T00:11:40.632Z,73.14
2023-02-19T00:12:19.923Z,73.18
2023-02-19T00:12:58.626Z,73.30
2023-02-19T00:13:41.800Z,73.33
2023-02-19T00:15:00.344Z,73.55
2023-02-19T00:15:39.997Z,72.83
2023-02-19T00:18:02.675Z,73.60
2023-02-19T00:18:47.046Z,73.15
2023-02-19T00:19:26.674Z,72.95
2023-02-19T00:20:07.491Z,73.67
2023-02-19T00:20:47.495Z,73.32
2023-02-19T00:21:27.737Z,74.00
2023-02-19T00:22:07.146Z,73.44
2023-02-19T00:22:46.433Z,73.74
2023-02-19T00:23:27.106Z,73.61
2023-02-19T00:24:08.170Z,74.22
2023-02-19T00:24:49.216Z,74.25
2023-02-19T00:25:53.218Z,74.28
2023-02-19T00:26:32.630Z,74.17
2023-02-19T00:27:12.999Z,74.29
2023-02-19T00:28:32.554Z,74.24
2023-02-19T00:29:20.408Z,74.70
2023-02-19T00:29:59.963Z,74.66
2023-02-19T00:30:38.931Z,74.52
2023-02-19T00:31:22.631Z,75.30
2023-02-19T00:32:01.558Z,75.05
2023-02-19T00:34:28.682Z,74.92
2023-02-19T00:35:08.064Z,74.71
2023-02-19T00:35:47.141Z,74.64
2023-02-19T00:36:36.884Z,75.29
2023-02-19T00:37:17.222Z,74.99
2023-02-19T00:37:56.801Z,75.08
2023-02-19T00:39:13.616Z,74.52
2023-02-19T00:39:54.617Z,74.52
2023-02-19T00:40:33.961Z,75.02
2023-02-19T00:41:20.676Z,74.83
2023-02-19T00:42:00.967Z,74.55
2023-02-19T00:42:39.920Z,74.65
2023-02-19T00:43:22.102Z,74.41
2023-02-19T00:44:10.852Z,74.71
2023-02-19T00:44:49.992Z,74.41
2023-02-19T00:45:32.018Z,74.43
2023-02-19T00:46:10.965Z,74.37
2023-02-19T00:46:53.035Z,74.35
2023-02-19T00:47:34.171Z,75.02
2023-02-19T00:48:14.283Z,73.76
2023-02-19T00:49:30.929Z,75.08
2023-02-19T00:50:18.521Z,75.00
2023-02-19T00:50:57.921Z,74.86
2023-02-19T00:51:39.879Z,74.02
2023-02-19T00:52:22.122Z,74.28
2023-02-19T00:53:01.602Z,74.74
2023-02-19T00:53:40.694Z,74.09
2023-02-19T00:54:19.655Z,73.96
2023-02-19T00:55:06.867Z,74.63
2023-02-19T00:55:45.747Z,74.27
2023-02-19T00:56:25.103Z,74.05
2023-02-19T00:57:07.574Z,73.96
2023-02-19T00:57:56.092Z,73.74
2023-02-19T00:58:35.716Z,74.38
2023-02-19T01:00:04.488Z,73.89
2023-02-19T01:00:43.940Z,73.80
2023-02-19T01:02:09.800Z,73.67
2023-02-19T01:02:48.911Z,73.68
2023-02-19T01:04:08.534Z,74.20
2023-02-19T01:04:50.466Z,74.20
2023-02-19T01:06:20.838Z,74.18
2023-02-19T01:06:59.981Z,74.37
2023-02-19T01:07:41.818Z,73.82
2023-02-19T01:08:21.386Z,73.90
2023-02-19T01:09:01.283Z,74.96
2023-02-19T01:09:41.089Z,74.77
2023-02-19T01:10:20.701Z,74.41
2023-02-19T01:11:40.979Z,74.27
2023-02-19T01:12:57.920Z,74.66
2023-02-19T01:14:20.810Z,74.42
2023-02-19T01:15:00.570Z,74.17
2023-02-19T01:15:40.817Z,74.75
2023-02-19T01:17:10.659Z,75.01
2023-02-19T01:18:14.817Z,74.32
2023-02-19T01:21:19.469Z,74.23
2023-02-19T01:22:39.975Z,73.99
2023-02-19T01:24:00.116Z,74.43
2023-02-19T01:25:03.432Z,74.68
2023-02-19T01:25:42.504Z,74.17
2023-02-19T01:26:25.804Z,74.30
2023-02-19T01:27:59.017Z,75.07
2023-02-19T01:28:39.034Z,75.31
2023-02-19T01:29:17.761Z,75.09
2023-02-19T01:30:00.118Z,74.70
2023-02-19T01:30:38.757Z,74.79
2023-02-19T01:31:31.161Z,74.73
2023-02-19T01:32:18.666Z,75.32
2023-02-19T01:32:57.788Z,75.09
2023-02-19T01:33:36.988Z,74.88
2023-02-19T01:34:40.266Z,75.49
2023-02-19T01:36:30.524Z,74.38
2023-02-19T01:37:17.687Z,74.17
2023-02-19T01:37:58.175Z,75.05
2023-02-19T01:38:41.333Z,75.10
2023-02-19T01:39:20.893Z,74.79
2023-02-19T01:39:59.912Z,74.90
2023-02-19T01:40:38.745Z,75.32
2023-02-19T01:41:24.416Z,74.78
2023-02-19T01:42:03.269Z,75.55
2023-02-19T01:42:55.703Z,75.42
2023-02-19T01:44:08.216Z,74.24
2023-02-19T01:45:15.956Z,75.41
2023-02-19T01:45:55.318Z,75.40
2023-02-19T01:46:39.753Z,75.13
2023-02-19T01:47:20.454Z,74.99
2023-02-19T01:48:50.409Z,74.96
2023-02-19T01:49:29.552Z,74.56
2023-02-19T01:50:09.515Z,74.86
2023-02-19T01:51:21.623Z,75.47
2023-02-19T01:52:17.847Z,74.99
2023-02-19T01:52:57.380Z,75.13
2023-02-19T01:53:46.194Z,75.27
2023-02-19T01:54:29.798Z,74.89
2023-02-19T01:55:47.418Z,75.50
2023-02-19T01:56:30.210Z,75.11
2023-02-19T01:57:55.646Z,75.46
2023-02-19T01:58:35.395Z,75.44
2023-02-19T01:59:14.404Z,74.99
2023-02-19T02:00:03.801Z,75.48
2023-02-19T02:00:43.842Z,75.51
2023-02-19T02:01:25.904Z,75.05
2023-02-19T02:02:14.683Z,75.60
2023-02-19T02:02:58.060Z,74.95
2023-02-19T02:03:48.960Z,75.53
2023-02-19T02:04:31.924Z,75.66
2023-02-19T02:06:13.456Z,75.41
2023-02-19T02:08:40.385Z,74.85
2023-02-19T02:09:42.814Z,75.62
2023-02-19T02:11:13.430Z,75.29
2023-02-19T02:11:56.290Z,75.74
2023-02-19T02:12:40.048Z,75.27
2023-02-19T02:13:21.539Z,75.25
2023-02-19T02:14:01.001Z,75.73
2023-02-19T02:14:42.560Z,75.64
2023-02-19T02:15:29.817Z,75.17
2023-02-19T02:18:31.729Z,75.20
2023-02-19T02:19:55.843Z,75.40
2023-02-19T02:20:59.538Z,75.09
2023-02-19T02:23:11.270Z,75.42
2023-02-19T02:25:08.020Z,75.13
2023-02-19T02:25:53.753Z,74.88
2023-02-19T02:27:26.612Z,74.21
2023-02-19T02:29:08.752Z,74.82
2023-02-19T02:30:09.581Z,74.26
2023-02-19T02:30:51.495Z,74.25
2023-02-19T02:31:38.145Z,74.56
2023-02-19T02:32:18.893Z,74.62
2023-02-19T02:33:13.889Z,75.08
2023-02-19T02:33:54.431Z,74.76
2023-02-19T02:35:19.408Z,75.33
2023-02-19T02:36:42.394Z,74.83
2023-02-19T02:37:54.687Z,74.88
2023-02-19T02:38:41.822Z,74.54
2023-02-19T02:39:20.548Z,74.76
2023-02-19T02:40:03.965Z,74.17
2023-02-19T02:40:46.528Z,74.56
2023-02-19T02:41:30.205Z,74.61
2023-02-19T02:42:27.553Z,74.17
2023-02-19T02:43:07.942Z,74.29
2023-02-19T02:43:54.888Z,73.88
2023-02-19T02:44:35.588Z,74.29
2023-02-19T02:45:51.238Z,74.42
2023-02-19T02:46:30.233Z,73.57
2023-02-19T02:47:06.408Z,73.31
2023-02-19T02:47:50.694Z,74.18
2023-02-19T02:48:45.714Z,73.68
2023-02-19T02:49:24.455Z,73.96
2023-02-19T02:50:41.523Z,74.09
2023-02-19T02:51:52.898Z,74.05
2023-02-19T02:52:50.919Z,73.95
2023-02-19T02:54:17.369Z,74.50
2023-02-19T02:54:55.447Z,74.43
2023-02-19T02:55:41.727Z,73.94
2023-02-19T02:56:24.824Z,74.03
2023-02-19T02:57:09.424Z,74.29
2023-02-19T02:57:52.386Z,74.21
2023-02-19T02:58:34.206Z,73.68
2023-02-19T02:59:21.823Z,73.84
2023-02-19T03:00:00.882Z,73.97
2023-02-19T03:01:06.439Z,74.07
2023-02-19T03:02:12.754Z,74.58
2023-02-19T03:02:53.934Z,73.80
2023-02-19T03:03:47.777Z,74.46
2023-02-19T03:05:10.435Z,74.29
2023-02-19T03:05:52.682Z,74.02
2023-02-19T03:06:36.463Z,74.19
2023-02-19T03:07:15.905Z,74.13
2023-02-19T03:08:15.407Z,74.55
2023-02-19T03:09:40.641Z,74.59
2023-02-19T03:10:31.921Z,74.46
2023-02-19T03:11:31.740Z,74.91
2023-02-19T03:12:37.708Z,74.32
2023-02-19T03:13:47.353Z,74.25
2023-02-19T03:14:59.759Z,75.06
2023-02-19T03:16:27.535Z,73.92
2023-02-19T03:17:40.735Z,74.07
2023-02-19T03:19:20.411Z,73.26
2023-02-19T03:20:06.165Z,73.47
2023-02-19T03:22:06.398Z,73.45
2023-02-19T03:22:47.221Z,73.55
2023-02-19T03:24:27.405Z,73.89
2023-02-19T03:26:03.507Z,73.18
2023-02-19T03:26:53.958Z,73.82
2023-02-19T03:27:35.659Z,73.33
2023-02-19T03:28:14.846Z,73.90
2023-02-19T03:29:15.382Z,73.84
2023-02-19T03:30:01.937Z,74.00
2023-02-19T03:31:18.599Z,72.97
2023-02-19T03:32:09.062Z,73.88
2023-02-19T03:32:48.611Z,73.82
2023-02-19T03:33:26.761Z,73.06
2023-02-19T03:34:13.373Z,72.63
2023-02-19T03:35:02.501Z,73.02
2023-02-19T03:36:19.560Z,73.10
2023-02-19T03:37:09.891Z,72.55
2023-02-19T03:39:30.787Z,73.22
2023-02-19T03:41:06.513Z,72.64
2023-02-19T03:43:28.585Z,72.24
2023-02-19T03:44:03.401Z,73.19
2023-02-19T03:45:03.700Z,72.74
2023-02-19T03:45:45.649Z,71.85
2023-02-19T03:46:52.221Z,72.10
2023-02-19T03:48:13.738Z,72.64
2023-02-19T03:49:53.993Z,72.11
2023-02-19T03:50:41.558Z,71.68
2023-02-19T03:51:20.493Z,72.01
2023-02-19T03:52:22.694Z,72.18
2023-02-19T03:53:01.670Z,73.07
2023-02-19T03:54:20.806Z,72.51
2023-02-19T03:56:02.682Z,72.70
2023-02-19T03:57:00.100Z,72.91
2023-02-19T03:58:03.971Z,72.69
2023-02-19T03:58:54.115Z,72.63
2023-02-19T04:00:10.263Z,72.13
2023-02-19T04:01:05.024Z,72.77
2023-02-19T04:01:56.950Z,72.31
2023-02-19T04:02:39.549Z,72.16
2023-02-19T04:03:23.776Z,72.25
2023-02-19T04:04:20.071Z,71.72
2023-02-19T04:05:14.023Z,71.99
2023-02-19T04:06:12.180Z,71.79
2023-02-19T04:06:57.589Z,71.91
2023-02-19T04:07:36.850Z,72.27
2023-02-19T04:08:19.386Z,72.64
2023-02-19T04:08:58.602Z,72.55
2023-02-19T04:09:49.974Z,72.34
2023-02-19T04:10:33.028Z,72.71
2023-02-19T04:11:18.607Z,72.31
2023-02-19T04:11:58.905Z,72.05
2023-02-19T04:12:45.001Z,72.29
2023-02-19T04:13:32.019Z,72.42
2023-02-19T04:14:30.540Z,72.15
2023-02-19T04:15:35.321Z,71.56
2023-02-19T04:17:05.583Z,72.01
2023-02-19T04:18:00.806Z,72.44
2023-02-19T04:20:01.598Z,71.75
2023-02-19T04:20:44.826Z,72.00
2023-02-19T04:22:02.725Z,72.86
2023-02-19T04:22:43.330Z,71.90
2023-02-19T04:24:19.886Z,72.52
2023-02-19T04:25:00.975Z,71.95
2023-02-19T04:26:05.312Z,72.16
2023-02-19T04:26:46.192Z,71.70
2023-02-19T04:27:51.260Z,72.66
2023-02-19T04:28:30.431Z,72.01
2023-02-19T04:29:09.960Z,72.45
2023-02-19T04:30:28.528Z,72.57
2023-02-19T04:32:27.976Z,72.79
2023-02-19T04:33:08.480Z,72.15
2023-02-19T04:33:47.924Z,72.00
2023-02-19T04:34:29.890Z,71.86
2023-02-19T04:37:25.091Z,71.86
2023-02-19T04:38:44.506Z,71.46
2023-02-19T04:39:23.949Z,71.44
2023-02-19T04:40:03.567Z,71.49
2023-02-19T04:40:42.852Z,70.93
2023-02-19T04:41:22.049Z,71.66
2023-02-19T04:42:04.644Z,71.77
2023-02-19T04:42:44.814Z,71.33
2023-02-19T04:43:24.075Z,71.45
2023-02-19T04:44:06.028Z,71.67
2023-02-19T04:44:46.021Z,71.74
2023-02-19T04:45:27.995Z,72.33
2023-02-19T04:46:07.046Z,72.38
2023-02-19T04:46:48.690Z,72.10
2023-02-19T04:47:28.446Z,71.49
2023-02-19T04:48:08.359Z,71.27
2023-02-19T04:48:47.901Z,71.15
2023-02-19T04:51:38.245Z,72.28
2023-02-19T04:52:17.992Z,71.72
2023-02-19T04:52:57.895Z,71.85
2023-02-19T04:53:40.975Z,71.38
2023-02-19T04:54:57.843Z,71.58
2023-02-19T04:55:39.111Z,71.32
2023-02-19T04:56:21.147Z,71.32
2023-02-19T04:57:56.877Z,71.34
2023-02-19T04:58:37.536Z,71.26
2023-02-19T05:00:51.998Z,71.20
2023-02-19T05:01:33.920Z,71.49
2023-02-19T05:02:46.589Z,71.70
2023-02-19T05:03:26.043Z,71.07
2023-02-19T05:04:05.610Z,71.48
2023-02-19T05:04:52.721Z,70.68
2023-02-19T05:05:32.674Z,71.55
2023-02-19T05:06:14.977Z,71.61
2023-02-19T05:07:53.608Z,70.53
2023-02-19T05:08:33.644Z,71.07
2023-02-19T05:10:05.207Z,70.62
2023-02-19T05:10:49.675Z,71.15
2023-02-19T05:11:27.639Z,71.03
2023-02-19T05:12:06.530Z,70.35
2023-02-19T05:12:46.452Z,70.23
2023-02-19T05:14:07.183Z,71.23
2023-02-19T05:15:25.904Z,70.17
2023-02-19T05:17:08.642Z,71.09
2023-02-19T05:18:35.592Z,70.97
2023-02-19T05:19:16.070Z,70.20
2023-02-19T05:19:56.074Z,70.49
2023-02-19T05:20:36.815Z,70.75
2023-02-19T05:21:15.951Z,70.29
2023-02-19T05:22:56.407Z,70.83
2023-02-19T05:23:36.117Z,69.99
2023-02-19T05:24:16.747Z,70.36
2023-02-19T05:25:38.741Z,70.33
2023-02-19T05:26:21.754Z,70.14
2023-02-19T05:27:01.963Z,70.29
2023-02-19T05:27:41.618Z,70.24
2023-02-19T05:28:28.771Z,69.87
2023-02-19T05:29:09.038Z,69.84
2023-02-19T05:30:26.193Z,69.92
2023-02-19T05:31:09.725Z,69.29
2023-02-19T05:31:49.526Z,69.77
2023-02-19T05:32:38.587Z,69.85
2023-02-19T05:33:17.228Z,70.46
2023-02-19T05:34:04.321Z,69.61
2023-02-19T05:34:44.542Z,69.95
2023-02-19T05:35:23.621Z,70.48
2023-02-19T05:36:07.118Z,70.61
2023-02-19T05:36:47.573Z,69.88
2023-02-19T05:37:35.466Z,70.31
2023-02-19T05:38:15.660Z,70.73
2023-02-19T05:38:58.222Z,70.37
2023-02-19T05:39:37.533Z,69.84
2023-02-19T05:41:05.077Z,70.31
2023-02-19T05:41:47.172Z,70.12
2023-02-19T05:42:28.069Z,70.64
2023-02-19T05:44:39.471Z,70.56
2023-02-19T05:46:20.231Z,70.28
2023-02-19T05:46:59.534Z,70.73
2023-02-19T05:47:46.442Z,70.15
2023-02-19T05:48:35.559Z,70.89
2023-02-19T05:49:17.624Z,70.76
2023-02-19T05:49:59.498Z,70.46
2023-02-19T05:50:41.623Z,70.92
2023-02-19T05:51:24.150Z,70.00
2023-02-19T05:52:17.358Z,70.88
2023-02-19T05:54:29.654Z,70.81
2023-02-19T05:55:09.088Z,71.48
2023-02-19T05:55:48.657Z,70.41
2023-02-19T05:56:28.304Z,71.01
2023-02-19T05:57:10.525Z,70.63
2023-02-19T05:59:15.953Z,71.19
2023-02-19T06:00:34.672Z,71.23
2023-02-19T06:01:14.164Z,71.67
2023-02-19T06:02:32.591Z,71.79
2023-02-19T06:03:36.110Z,71.53
2023-02-19T06:05:19.989Z,71.29
2023-02-19T06:08:52.830Z,71.02
2023-02-19T06:09:33.426Z,70.55
2023-02-19T06:10:13.818Z,70.93
2023-02-19T06:10:53.703Z,70.53
2023-02-19T06:11:32.966Z,71.31
2023-02-19T06:12:16.859Z,70.91
2023-02-19T06:14:50.720Z,70.73
2023-02-19T06:17:17.264Z,70.99
2023-02-19T06:17:57.071Z,70.44
2023-02-19T06:19:13.255Z,70.58
2023-02-19T06:20:02.168Z,70.21
2023-02-19T06:21:22.617Z,71.08
2023-02-19T06:22:02.101Z,70.27
2023-02-19T06:22:41.241Z,69.97
2023-02-19T06:23:20.508Z,70.38
2023-02-19T06:24:24.170Z,70.89
2023-02-19T06:25:04.985Z,70.79
2023-02-19T06:28:10.761Z,69.56
2023-02-19T06:30:08.294Z,70.32
2023-02-19T06:30:51.250Z,69.75
2023-02-19T06:31:30.867Z,69.45
2023-02-19T06:32:49.104Z,69.85
2023-02-19T06:33:30.140Z,69.58
2023-02-19T06:34:47.716Z,69.62
2023-02-19T06:35:27.209Z,69.42
2023-02-19T06:36:08.738Z,69.65
2023-02-19T06:37:53.343Z,69.51
2023-02-19T06:39:11.889Z,69.88
2023-02-19T06:40:28.697Z,69.69
2023-02-19T06:41:08.336Z,68.89
2023-02-19T06:41:58.439Z,69.14
2023-02-19T06:43:02.664Z,68.88
2023-02-19T06:43:41.027Z,68.71
2023-02-19T06:44:52.263Z,69.27
2023-02-19T06:45:31.573Z,69.16
2023-02-19T06:46:10.315Z,69.50
2023-02-19T06:46:49.789Z,68.53
2023-02-19T06:47:35.404Z,68.49
2023-02-19T06:48:15.524Z,68.93
2023-02-19T06:48:57.545Z,68.95
2023-02-19T06:49:39.633Z,69.02
2023-02-19T06:50:43.260Z,68.56
2023-02-19T06:53:27.732Z,67.97
2023-02-19T06:54:06.357Z,68.01
2023-02-19T06:54:46.030Z,67.94
2023-02-19T06:55:28.646Z,67.99
2023-02-19T06:56:30.639Z,67.85
2023-02-19T06:57:12.646Z,67.54
2023-02-19T06:57:52.338Z,67.73
2023-02-19T06:58:34.044Z,68.03
2023-02-19T06:59:16.997Z,68.20
2023-02-19T06:59:56.635Z,68.57
2023-02-19T07:00:38.317Z,68.52
2023-02-19T07:01:19.193Z,68.74
2023-02-19T07:02:00.054Z,68.47
2023-02-19T07:02:41.120Z,68.50
2023-02-19T07:03:44.712Z,68.38
2023-02-19T07:04:23.554Z,67.71
2023-02-19T07:05:02.478Z,67.94
2023-02-19T07:05:43.958Z,68.96
2023-02-19T07:06:25.532Z,68.72
2023-02-19T07:07:51.613Z,68.30
2023-02-19T07:08:40.405Z,68.15
2023-02-19T07:11:19.806Z,69.04
2023-02-19T07:12:23.059Z,68.72
2023-02-19T07:13:03.098Z,68.30
2023-02-19T07:13:42.631Z,67.61
2023-02-19T07:14:29.893Z,68.11
2023-02-19T07:15:09.903Z,68.51
2023-02-19T07:15:52.000Z,68.36
2023-02-19T07:16:56.370Z,67.55
2023-02-19T07:18:16.632Z,68.28
2023-02-19T07:18:55.257Z,68.12
2023-02-19T07:19:44.382Z,67.85
2023-02-19T07:20:57.120Z,67.49
2023-02-19T07:21:37.968Z,67.40
2023-02-19T07:22:57.634Z,68.01
2023-02-19T07:23:36.155Z,68.32
2023-02-19T07:24:15.934Z,68.17
2023-02-19T07:25:19.595Z,68.29
2023-02-19T07:25:59.651Z,67.61
2023-02-19T07:26:46.410Z,67.57
2023-02-19T07:27:28.596Z,68.04
2023-02-19T07:28:08.036Z,67.10
2023-02-19T07:28:55.531Z,66.86
2023-02-19T07:29:36.647Z,67.35
2023-02-19T07:30:15.660Z,67.02
2023-02-19T07:31:01.032Z,66.83
2023-02-19T07:31:40.659Z,66.94
2023-02-19T07:32:45.574Z,67.50
2023-02-19T07:34:27.967Z,67.00
2023-02-19T07:36:06.559Z,66.56
2023-02-19T07:37:48.265Z,68.22
2023-02-19T07:39:09.141Z,67.91
2023-02-19T07:39:48.197Z,67.61
2023-02-19T07:40:28.737Z,67.87
2023-02-19T07:41:11.565Z,67.58
2023-02-19T07:41:52.601Z,67.24
2023-02-19T07:42:32.246Z,66.42
2023-02-19T07:43:11.601Z,66.71
2023-02-19T07:43:51.646Z,67.36
2023-02-19T07:44:55.203Z,67.34
2023-02-19T07:45:38.186Z,67.16
2023-02-19T07:47:20.129Z,68.00
2023-02-19T07:48:24.656Z,66.74
2023-02-19T07:49:35.645Z,67.40
2023-02-19T07:50:17.627Z,67.40
2023-02-19T07:50:56.346Z,67.00
2023-02-19T07:51:39.244Z,66.51
2023-02-19T07:52:31.502Z,66.52
2023-02-19T07:53:11.619Z,67.55
2023-02-19T07:54:15.395Z,67.23
2023-02-19T07:54:54.371Z,67.53
2023-02-19T07:55:35.442Z,65.69
2023-02-19T07:56:14.987Z,66.27
2023-02-19T07:57:31.661Z,66.76
2023-02-19T07:59:31.615Z,66.40
2023-02-19T08:00:52.185Z,66.15
2023-02-19T08:02:15.192Z,64.98
2023-02-19T08:04:37.046Z,64.71
2023-02-19T08:05:57.835Z,63.96
2023-02-19T08:06:41.591Z,64.28
2023-02-19T08:08:01.727Z,63.80
2023-02-19T08:08:41.755Z,64.07
2023-02-19T08:09:21.561Z,64.35
2023-02-19T08:10:21.428Z,63.75
2023-02-19T08:11:38.292Z,63.54
2023-02-19T08:12:36.426Z,62.72
2023-02-19T08:14:00.496Z,62.82
2023-02-19T08:14:48.724Z,62.97
2023-02-19T08:15:33.364Z,62.35
2023-02-19T08:16:36.711Z,62.15
2023-02-19T08:17:30.319Z,61.83
2023-02-19T08:18:12.348Z,62.83
2023-02-19T08:18:52.889Z,62.31
2023-02-19T08:19:32.751Z,62.28
2023-02-19T08:20:11.606Z,61.98
2023-02-19T08:20:56.085Z,62.29
2023-02-19T08:21:35.622Z,62.44
2023-02-19T08:22:16.443Z,62.50
2023-02-19T08:22:55.627Z,61.89
2023-02-19T08:24:34.019Z,62.05
2023-02-19T08:25:14.591Z,61.57
2023-02-19T08:26:00.724Z,61.86
2023-02-19T08:27:57.638Z,61.10
2023-02-19T08:28:36.408Z,61.40
2023-02-19T08:29:30.546Z,61.63
2023-02-19T08:30:34.454Z,62.13
2023-02-19T08:32:32.070Z,62.32
2023-02-19T08:33:11.168Z,62.33
2023-02-19T08:33:53.681Z,61.64
2023-02-19T08:34:32.281Z,61.55
2023-02-19T08:35:19.457Z,61.63
2023-02-19T08:36:04.783Z,61.66
2023-02-19T08:36:46.565Z,61.92
2023-02-19T08:37:25.574Z,62.35
2023-02-19T08:38:07.486Z,62.90
2023-02-19T08:38:49.648Z,63.05
2023-02-19T08:39:32.937Z,62.82
2023-02-19T08:40:13.483Z,62.17
2023-02-19T08:40:52.665Z,61.95
2023-02-19T08:41:41.594Z,61.88
2023-02-19T08:42:24.026Z,61.99
2023-02-19T08:43:06.694Z,61.54
2023-02-19T08:44:28.167Z,62.44
2023-02-19T08:45:08.070Z,62.22
2023-02-19T08:45:48.913Z,62.38
2023-02-19T08:47:00.797Z,61.84
2023-02-19T08:48:19.576Z,62.87
2023-02-19T08:49:39.899Z,63.19
2023-02-19T08:51:07.419Z,63.03
2023-02-19T08:51:46.641Z,62.79
2023-02-19T08:53:06.150Z,62.94
2023-02-19T08:53:48.734Z,63.03
2023-02-19T08:54:52.045Z,63.58
2023-02-19T08:55:31.812Z,63.75
2023-02-19T08:56:16.557Z,63.64
2023-02-19T08:57:35.821Z,63.53
2023-02-19T08:58:39.411Z,63.42
2023-02-19T08:59:59.688Z,63.83
2023-02-19T09:01:03.711Z,63.31
2023-02-19T09:02:23.909Z,63.19
2023-02-19T09:03:03.721Z,63.08
2023-02-19T09:03:44.225Z,63.19
2023-02-19T09:05:45.333Z,63.37
2023-02-19T09:06:27.653Z,63.54
2023-02-19T09:07:46.085Z,64.07
2023-02-19T09:09:04.118Z,64.00
2023-02-19T09:11:03.635Z,62.86
2023-02-19T09:11:42.529Z,62.96
2023-02-19T09:12:33.744Z,63.19
2023-02-19T09:15:15.638Z,62.91
2023-02-19T09:16:40.651Z,63.39
2023-02-19T09:17:19.615Z,63.04
2023-02-19T09:18:23.888Z,64.20
2023-02-19T09:19:41.885Z,63.40
2023-02-19T09:21:25.502Z,63.84
2023-02-19T09:22:04.235Z,63.62
2023-02-19T09:23:07.878Z,64.30
2023-02-19T09:23:50.324Z,64.58
2023-02-19T09:24:29.770Z,63.94
2023-02-19T09:25:33.386Z,63.87
2023-02-19T09:28:25.625Z,64.36
2023-02-19T09:29:29.196Z,64.74
2023-02-19T09:31:06.594Z,65.20
2023-02-19T09:34:07.842Z,64.69
2023-02-19T09:35:12.142Z,64.36
2023-02-19T09:35:55.750Z,64.07
2023-02-19T09:36:35.907Z,63.85
2023-02-19T09:37:14.876Z,64.21
2023-02-19T09:38:02.099Z,64.74
2023-02-19T09:38:42.250Z,64.89
2023-02-19T09:39:46.336Z,64.43
2023-02-19T09:41:32.053Z,64.20
2023-02-19T09:42:52.076Z,64.94
2023-02-19T09:43:58.665Z,64.30
2023-02-19T09:45:25.098Z,64.26
2023-02-19T09:47:47.267Z,64.67
2023-02-19T09:49:38.838Z,64.25
2023-02-19T09:51:11.259Z,64.43
2023-02-19T09:52:54.420Z,64.43
2023-02-19T09:53:43.649Z,64.35
2023-02-19T09:55:36.914Z,63.57
2023-02-19T09:56:17.294Z,64.25
2023-02-19T09:58:02.577Z,63.80
2023-02-19T09:58:44.366Z,63.66
2023-02-19T09:59:40.887Z,62.85
2023-02-19T10:00:21.440Z,62.80
2023-02-19T10:01:26.960Z,63.08
2023-02-19T10:02:30.969Z,63.31
2023-02-19T10:03:14.540Z,63.06
2023-02-19T10:04:10.185Z,62.52
2023-02-19T10:04:52.606Z,62.67
2023-02-19T10:07:15.368Z,63.18
2023-02-19T10:07:58.731Z,63.31
2023-02-19T10:08:48.620Z,62.88
2023-02-19T10:09:31.390Z,62.15
2023-02-19T10:10:14.340Z,63.56
2023-02-19T10:10:55.065Z,63.17
2023-02-19T10:11:34.808Z,62.76
2023-02-19T10:12:24.953Z,63.14
2023-02-19T10:13:28.197Z,63.08
2023-02-19T10:14:19.503Z,63.24
2023-02-19T10:15:23.169Z,63.31
2023-02-19T10:17:27.507Z,63.44
2023-02-19T10:18:49.821Z,62.92
2023-02-19T10:20:15.789Z,63.14
2023-02-19T10:20:57.643Z,62.89
2023-02-19T10:21:41.382Z,63.28
2023-02-19T10:22:21.629Z,62.87
2023-02-19T10:23:19.500Z,62.48
2023-02-19T10:23:59.207Z,63.36
2023-02-19T10:24:51.890Z,62.53
2023-02-19T10:25:43.356Z,62.78
2023-02-19T10:26:27.696Z,62.74
2023-02-19T10:27:18.264Z,63.00
2023-02-19T10:28:07.306Z,62.09
2023-02-19T10:28:49.710Z,62.04
2023-02-19T10:30:16.797Z,62.22
2023-02-19T10:31:01.413Z,61.74
2023-02-19T10:32:10.438Z,62.06
2023-02-19T10:33:01.285Z,61.75
2023-02-19T10:33:55.946Z,61.69
2023-02-19T10:34:37.081Z,62.09
2023-02-19T10:35:30.242Z,61.76
2023-02-19T10:36:37.618Z,61.55
2023-02-19T10:38:59.510Z,60.96
2023-02-19T10:39:49.968Z,60.78
2023-02-19T10:40:32.378Z,60.70
2023-02-19T10:41:30.880Z,60.95
2023-02-19T10:42:50.815Z,60.73
2023-02-19T10:43:37.155Z,61.20
2023-02-19T10:45:06.284Z,60.28
2023-02-19T10:45:50.454Z,60.99
2023-02-19T10:47:33.062Z,60.21
2023-02-19T10:48:57.423Z,59.59
2023-02-19T10:49:44.190Z,59.26
2023-02-19T10:50:56.091Z,59.42
2023-02-19T10:52:42.559Z,59.57
2023-02-19T10:54:41.349Z,59.54
2023-02-19T10:55:40.847Z,59.81
2023-02-19T10:56:21.340Z,59.85
2023-02-19T10:57:00.376Z,59.76
2023-02-19T10:57:40.587Z,59.53
2023-02-19T11:01:42.307Z,59.79
2023-02-19T11:03:24.104Z,59.52
2023-02-19T11:04:18.277Z,59.76
2023-02-19T11:05:16.668Z,59.55
2023-02-19T11:06:08.397Z,59.81
2023-02-19T11:06:49.033Z,60.14
2023-02-19T11:07:56.982Z,58.31
2023-02-19T11:09:01.484Z,59.46
2023-02-19T11:09:53.836Z,58.79
2023-02-19T11:10:42.806Z,58.23
2023-02-19T11:11:50.837Z,58.12
2023-02-19T11:13:38.005Z,58.46
2023-02-19T11:15:19.917Z,58.33
2023-02-19T11:16:46.763Z,58.29
2023-02-19T11:17:27.300Z,58.41
2023-02-19T11:18:32.996Z,58.91
2023-02-19T11:20:08.470Z,58.86
2023-02-19T11:20:54.687Z,58.27
2023-02-19T11:21:33.268Z,58.19
2023-02-19T11:22:19.394Z,58.92
2023-02-19T11:22:52.501Z,57.64
2023-02-19T11:23:31.550Z,57.29
2023-02-19T11:24:06.606Z,58.01
2023-02-19T11:24:40.643Z,57.84
2023-02-19T11:25:15.338Z,57.89
2023-02-19T11:25:50.232Z,57.28
2023-02-19T11:26:26.972Z,57.21
2023-02-19T11:29:24.753Z,57.21
2023-02-19T11:30:14.378Z,56.79
2023-02-19T11:31:47.316Z,56.70
2023-02-19T11:32:31.010Z,56.06
2023-02-19T11:33:22.108Z,56.75
2023-02-19T11:34:10.224Z,56.67
2023-02-19T11:34:51.525Z,57.15
2023-02-19T11:35:31.296Z,56.33
2023-02-19T11:36:27.671Z,55.89
2023-02-19T11:37:17.707Z,57.06
2023-02-19T11:38:22.018Z,57.15
2023-02-19T11:40:48.528Z,56.23
2023-02-19T11:42:18.317Z,56.28
2023-02-19T11:43:15.204Z,55.68
2023-02-19T11:44:25.858Z,56.03
2023-02-19T11:45:14.142Z,56.07
2023-02-19T11:46:00.679Z,55.79
2023-02-19T11:46:56.999Z,56.70
2023-02-19T11:48:05.801Z,55.99
2023-02-19T11:48:46.707Z,56.06
2023-02-19T11:49:50.343Z,56.67
2023-02-19T11:51:09.597Z,56.00
2023-02-19T11:52:00.321Z,57.61
2023-02-19T11:52:53.770Z,57.58
2023-02-19T11:53:49.661Z,57.00
2023-02-19T11:56:36.361Z,56.18
2023-02-19T11:58:09.370Z,56.83
2023-02-19T11:58:48.905Z,56.06
2023-02-19T11:59:33.778Z,55.56
2023-02-19T12:00:25.011Z,55.79
2023-02-19T12:01:54.196Z,55.92
2023-02-19T12:02:34.297Z,55.54
2023-02-19T12:03:38.655Z,55.30
2023-02-19T12:06:04.448Z,56.58
2023-02-19T12:08:41.362Z,55.58
2023-02-19T12:10:10.464Z,54.87
2023-02-19T12:11:03.753Z,54.82
2023-02-19T12:12:02.338Z,55.61
2023-02-19T12:13:06.583Z,54.68
2023-02-19T12:15:26.362Z,53.88
2023-02-19T12:16:30.816Z,54.64
2023-02-19T12:18:25.617Z,54.39
2023-02-19T12:19:05.445Z,54.15
2023-02-19T12:20:31.402Z,53.67
2023-02-19T12:23:01.740Z,54.32
2023-02-19T12:23:43.424Z,54.20
2023-02-19T12:24:35.392Z,54.62
2023-02-19T12:25:29.446Z,53.79
2023-02-19T12:26:28.600Z,53.79
2023-02-19T12:27:20.543Z,53.60
2023-02-19T12:28:20.921Z,53.56
2023-02-19T12:29:27.297Z,54.17
2023-02-19T12:30:31.972Z,53.43
2023-02-19T12:32:40.123Z,53.19
2023-02-19T12:33:44.190Z,53.75
2023-02-19T12:36:20.167Z,54.29
2023-02-19T12:37:23.827Z,53.92
2023-02-19T12:38:36.362Z,53.97
2023-02-19T12:39:30.344Z,53.34
2023-02-19T12:40:23.183Z,53.03
2023-02-19T12:41:20.872Z,53.19
2023-02-19T12:42:09.523Z,53.61
2023-02-19T12:43:03.397Z,54.06
2023-02-19T12:43:56.089Z,53.29
2023-02-19T12:44:52.630Z,52.62
2023-02-19T12:45:59.081Z,52.54
2023-02-19T12:47:57.844Z,51.91
2023-02-19T12:48:47.626Z,52.39
2023-02-19T12:50:30.025Z,52.43
2023-02-19T12:52:16.715Z,52.96
2023-02-19T12:54:19.549Z,51.49
2023-02-19T12:54:57.497Z,51.79
2023-02-19T12:56:05.420Z,51.73
2023-02-19T12:57:27.261Z,51.96
2023-02-19T12:58:57.328Z,51.94
2023-02-19T12:59:41.759Z,51.56